Terminal Aerodrome Forecast
Issued by NWS Kansas City/Pleasant Hill, MO

Home | Current Version | Previous Version | Text Only | Print | Product List | Glossary On
Versions: 1 2 3 4 5 6 7 8 9 10 11 12 13 14 15 16 17 18 19 20
000
FTUS43 KEAX 301214 AAA
TAFMCI
TAF AMD
KMCI 301214Z 3012/3112 07005KT 1/4SM FG BKN003
      TEMPO 3012/3014 2SM BR OVC009
     FM301400 10006KT P6SM BKN015
     FM301700 09006KT P6SM BKN025
     FM301900 11007KT P6SM SCT035=

USA.gov is the U.S. government's official web portal to all federal, state and local government web resources and services.